Delran Township, New Jersey
Current Conditions -  °F | °C
As of 11:54 AM on Saturday 20 Dec 2014 (Local Time) from KPNE Reporting Station
Overcast Overcast  
Wind Chill: 27°   Ceiling: 3000
Heat Index: 34°   Visibility: 10mi
Dew Point: 19°   Wind: 9mph
Humidity: 54%   Direction: 40°NE
Pressure: 30.29"   Gusts: NA
Location:  40.0192°N, 74.9489°W
Report Text: KPNE 201654Z AUTO 04008KT 10SM OVC030 01/M07 A3029 RMK AO2 SLP257 T00111072 TSNO $
Loading
Personal Weather Stations






























Interactive Weather Map New forecast layout! Learn more

10-Day Weather Forecast

Advertisements
Track Severe Weather on mobile